createdAt,value
2023-10-02T00:01:57.304Z,14.14
2023-10-02T00:04:26.122Z,14.36
2023-10-02T00:07:09.821Z,14.37
2023-10-02T00:09:39.383Z,14.23
2023-10-02T00:12:14.062Z,14.13
2023-10-02T00:14:43.648Z,13.93
2023-10-02T00:17:20.273Z,13.85
2023-10-02T00:19:51.168Z,13.62
2023-10-02T00:22:39.904Z,13.61
2023-10-02T00:25:18.191Z,13.57
2023-10-02T00:27:48.481Z,13.41
2023-10-02T00:30:17.740Z,13.50
2023-10-02T00:32:47.633Z,13.48
2023-10-02T00:35:16.549Z,13.44
2023-10-02T00:37:46.315Z,13.43
2023-10-02T00:40:32.467Z,13.47
2023-10-02T00:43:01.518Z,13.46
2023-10-02T00:45:40.416Z,13.41
2023-10-02T00:48:27.356Z,13.21
2023-10-02T00:51:00.021Z,12.99
2023-10-02T00:53:40.809Z,13.02
2023-10-02T00:56:23.069Z,13.12
2023-10-02T00:58:57.377Z,13.16
2023-10-02T01:04:26.088Z,13.04
2023-10-02T01:07:06.843Z,12.99
2023-10-02T01:09:37.997Z,13.00
2023-10-02T01:12:05.537Z,13.10
2023-10-02T01:14:51.108Z,13.05
2023-10-02T01:17:19.211Z,13.07
2023-10-02T01:19:57.885Z,13.02
2023-10-02T01:22:30.110Z,13.00
2023-10-02T01:25:18.541Z,13.00
2023-10-02T01:27:52.102Z,12.91
2023-10-02T01:30:23.949Z,12.95
2023-10-02T01:33:14.010Z,12.97
2023-10-02T01:36:00.344Z,13.05
2023-10-02T01:38:32.518Z,13.10
2023-10-02T01:41:05.089Z,13.09
2023-10-02T01:43:34.709Z,13.10
2023-10-02T01:46:07.967Z,13.14
2023-10-02T01:48:43.262Z,13.08
2023-10-02T01:51:22.274Z,13.04
2023-10-02T01:53:53.450Z,13.04
2023-10-02T01:56:21.551Z,12.99
2023-10-02T01:58:53.243Z,13.04
2023-10-02T02:01:22.336Z,13.10
2023-10-02T02:03:51.949Z,13.06
2023-10-02T02:06:25.298Z,13.10
2023-10-02T02:09:02.997Z,13.06
2023-10-02T02:11:36.307Z,13.13
2023-10-02T02:14:05.895Z,13.10
2023-10-02T02:16:35.735Z,13.11
2023-10-02T02:19:09.523Z,13.06
2023-10-02T02:21:37.164Z,13.02
2023-10-02T02:24:09.110Z,12.98
2023-10-02T02:26:39.392Z,13.01
2023-10-02T02:29:26.108Z,12.96
2023-10-02T02:31:56.762Z,13.07
2023-10-02T02:34:25.159Z,13.11
2023-10-02T02:36:52.749Z,13.14
2023-10-02T02:39:24.308Z,13.10
2023-10-02T02:42:13.266Z,13.19
2023-10-02T02:44:47.202Z,13.13
2023-10-02T02:47:16.499Z,13.17
2023-10-02T02:50:00.082Z,13.18
2023-10-02T02:52:34.160Z,13.10
2023-10-02T02:55:06.685Z,13.15
2023-10-02T02:57:39.959Z,13.18
2023-10-02T03:00:27.471Z,13.10
2023-10-02T03:03:01.686Z,13.15
2023-10-02T03:05:42.626Z,13.18
2023-10-02T03:08:15.962Z,13.23
2023-10-02T03:10:48.083Z,13.20
2023-10-02T03:13:18.424Z,13.28
2023-10-02T03:15:53.039Z,13.29
2023-10-02T03:18:32.838Z,13.19
2023-10-02T03:21:15.723Z,13.10
2023-10-02T03:23:45.761Z,13.07
2023-10-02T03:26:49.657Z,12.95
2023-10-02T03:29:24.073Z,12.97
2023-10-02T03:31:52.632Z,12.96
2023-10-02T03:34:32.010Z,12.88
2023-10-02T03:37:02.003Z,12.95
2023-10-02T03:39:52.412Z,12.96
2023-10-02T03:42:27.297Z,12.85
2023-10-02T03:44:58.203Z,12.85
2023-10-02T03:47:27.539Z,12.83
2023-10-02T03:50:02.677Z,12.74
2023-10-02T03:52:33.081Z,12.74
2023-10-02T03:55:16.485Z,12.74
2023-10-02T03:57:57.083Z,12.85
2023-10-02T04:14:59.010Z,13.22
2023-10-02T04:17:36.188Z,13.15
2023-10-02T04:20:06.977Z,12.94
2023-10-02T04:22:36.810Z,12.91
2023-10-02T04:25:06.930Z,12.82
2023-10-02T04:27:44.873Z,12.69
2023-10-02T04:30:17.057Z,12.76
2023-10-02T04:32:53.110Z,12.76
2023-10-02T04:35:39.484Z,12.61
2023-10-02T04:38:10.059Z,12.67
2023-10-02T04:40:53.315Z,12.56
2023-10-02T04:43:30.247Z,12.52
2023-10-02T04:46:10.033Z,12.54
2023-10-02T04:48:48.203Z,12.55
2023-10-02T04:51:17.563Z,12.60
2023-10-02T04:53:47.299Z,12.74
2023-10-02T04:56:20.589Z,12.83
2023-10-02T04:58:58.764Z,13.04
2023-10-02T05:01:31.114Z,13.14
2023-10-02T05:04:04.760Z,13.60
2023-10-02T05:07:05.106Z,14.05
2023-10-02T05:09:40.011Z,14.47
2023-10-02T05:12:07.956Z,14.77
2023-10-02T05:14:46.340Z,15.12
2023-10-02T05:17:20.152Z,15.57
2023-10-02T05:20:05.133Z,15.80
2023-10-02T05:22:34.094Z,16.24
2023-10-02T05:25:01.619Z,16.52
2023-10-02T05:27:38.356Z,16.79
2023-10-02T05:30:15.439Z,17.33
2023-10-02T05:32:43.257Z,17.55
2023-10-02T05:35:13.950Z,17.73
2023-10-02T05:37:43.478Z,17.79
2023-10-02T05:40:34.936Z,18.31
2023-10-02T05:43:02.215Z,18.99
2023-10-02T05:45:48.632Z,19.30
2023-10-02T05:48:28.117Z,19.54
2023-10-02T05:51:00.892Z,19.69
2023-10-02T05:53:33.938Z,19.92
2023-10-02T05:56:07.682Z,20.17
2023-10-02T05:58:40.819Z,20.71
2023-10-02T06:01:20.370Z,20.83
2023-10-02T06:04:02.690Z,20.99
2023-10-02T06:06:37.961Z,21.42
2023-10-02T06:09:14.870Z,21.64
2023-10-02T06:12:01.379Z,21.90
2023-10-02T06:14:28.632Z,21.85
2023-10-02T06:16:55.979Z,22.35
2023-10-02T06:19:23.610Z,22.45
2023-10-02T06:22:06.290Z,22.71
2023-10-02T06:24:33.472Z,23.37
2023-10-02T06:27:05.956Z,23.98
2023-10-02T06:29:37.543Z,23.80
2023-10-02T06:32:21.860Z,23.76
2023-10-02T06:34:52.116Z,23.96
2023-10-02T06:37:22.937Z,24.05
2023-10-02T06:40:25.595Z,24.55
2023-10-02T06:42:59.040Z,24.05
2023-10-02T06:45:28.350Z,24.75
2023-10-02T06:47:58.135Z,24.79
2023-10-02T06:50:29.304Z,24.83
2023-10-02T06:52:56.950Z,25.08
2023-10-02T06:55:26.243Z,25.53
2023-10-02T06:57:58.064Z,25.16
2023-10-02T07:00:37.779Z,25.72
2023-10-02T07:03:05.786Z,26.17
2023-10-02T07:05:36.050Z,25.56
2023-10-02T07:08:45.204Z,25.87
2023-10-02T07:11:12.711Z,25.96
2023-10-02T07:13:52.612Z,26.09
2023-10-02T07:16:19.838Z,25.91
2023-10-02T07:18:54.920Z,25.91
2023-10-02T07:21:23.199Z,26.34
2023-10-02T07:23:50.593Z,26.13
2023-10-02T07:26:40.024Z,26.21
2023-10-02T07:29:08.028Z,26.02
2023-10-02T07:31:36.062Z,25.43
2023-10-02T07:34:03.669Z,26.09
2023-10-02T07:36:34.428Z,26.06
2023-10-02T07:39:24.076Z,26.29
2023-10-02T07:42:01.626Z,25.91
2023-10-02T07:44:38.948Z,26.35
2023-10-02T07:47:12.628Z,26.59
2023-10-02T07:49:41.436Z,26.58
2023-10-02T07:52:09.396Z,26.43
2023-10-02T07:54:45.908Z,26.58
2023-10-02T07:57:15.920Z,26.33
2023-10-02T07:59:45.224Z,26.51
2023-10-02T08:02:38.901Z,26.35
2023-10-02T08:05:06.330Z,26.24
2023-10-02T08:07:44.552Z,26.48
2023-10-02T08:10:17.374Z,26.66
2023-10-02T08:12:57.433Z,26.33
2023-10-02T08:15:28.088Z,26.34
2023-10-02T08:17:55.643Z,25.94
2023-10-02T08:20:33.696Z,26.06
2023-10-02T08:23:03.650Z,26.34
2023-10-02T08:25:31.066Z,26.36
2023-10-02T08:27:59.049Z,26.36
2023-10-02T08:30:36.525Z,25.89
2023-10-02T08:33:25.455Z,26.13
2023-10-02T08:35:59.881Z,25.99
2023-10-02T08:38:29.732Z,26.20
2023-10-02T08:41:04.369Z,26.19
2023-10-02T08:43:44.877Z,26.14
2023-10-02T08:46:20.505Z,26.35
2023-10-02T08:48:58.222Z,26.41
2023-10-02T08:51:34.900Z,25.43
2023-10-02T08:54:07.036Z,25.57
2023-10-02T08:56:50.342Z,26.13
2023-10-02T08:59:20.245Z,26.63
2023-10-02T09:01:51.652Z,26.73
2023-10-02T09:04:28.099Z,26.56
2023-10-02T09:06:59.757Z,26.41
2023-10-02T09:09:36.195Z,26.44
2023-10-02T09:12:05.062Z,26.50
2023-10-02T09:14:35.073Z,26.84
2023-10-02T09:17:23.563Z,26.51
2023-10-02T09:20:01.809Z,26.77
2023-10-02T09:22:29.605Z,26.65
2023-10-02T09:24:59.022Z,26.46
2023-10-02T09:27:39.705Z,26.72
2023-10-02T09:30:23.348Z,26.35
2023-10-02T09:32:53.535Z,25.72
2023-10-02T09:35:52.286Z,25.48
2023-10-02T09:38:18.684Z,25.49
2023-10-02T09:41:02.944Z,25.91
2023-10-02T09:43:34.594Z,25.86
2023-10-02T09:46:07.646Z,26.39
2023-10-02T09:48:59.232Z,26.06
2023-10-02T09:51:32.179Z,25.74
2023-10-02T09:54:14.610Z,25.56
2023-10-02T09:57:06.690Z,25.87
2023-10-02T09:59:49.464Z,26.28
2023-10-02T10:02:24.408Z,25.92
2023-10-02T10:05:23.459Z,25.98
2023-10-02T10:07:53.109Z,26.06
2023-10-02T10:10:47.275Z,26.04
2023-10-02T10:13:35.395Z,24.93
2023-10-02T10:16:20.561Z,25.61
2023-10-02T10:19:19.297Z,26.02
2023-10-02T10:21:59.398Z,26.24
2023-10-02T10:24:58.646Z,25.73
2023-10-02T10:27:43.425Z,25.78
2023-10-02T10:30:28.484Z,25.98
2023-10-02T10:33:10.536Z,26.15
2023-10-02T10:35:53.058Z,26.08
2023-10-02T10:38:29.043Z,26.23
2023-10-02T10:41:02.530Z,25.87
2023-10-02T10:43:53.723Z,25.71
2023-10-02T10:46:21.725Z,26.16
2023-10-02T10:49:05.104Z,26.22
2023-10-02T10:51:35.455Z,26.29
2023-10-02T10:54:31.226Z,25.37
2023-10-02T10:57:36.199Z,25.89
2023-10-02T11:00:27.462Z,25.43
2023-10-02T11:03:15.490Z,25.65
2023-10-02T11:05:43.431Z,25.87
2023-10-02T11:08:29.693Z,25.63
2023-10-02T11:11:26.940Z,25.88
2023-10-02T11:14:02.064Z,26.07
2023-10-02T11:16:37.661Z,25.21
2023-10-02T11:19:23.228Z,25.74
2023-10-02T11:22:23.120Z,26.16
2023-10-02T11:24:54.122Z,25.13
2023-10-02T11:27:22.994Z,25.24
2023-10-02T11:30:04.753Z,25.37
2023-10-02T11:33:20.847Z,25.38
2023-10-02T11:35:48.029Z,25.35
2023-10-02T11:38:19.552Z,25.30
2023-10-02T11:40:46.616Z,24.89
2023-10-02T12:19:53.311Z,24.70
2023-10-02T12:27:54.519Z,24.85
2023-10-02T12:30:21.757Z,25.09
2023-10-02T12:32:51.692Z,25.05
2023-10-02T12:35:20.070Z,25.06
2023-10-02T12:37:47.306Z,24.93
2023-10-02T12:40:20.158Z,24.58
2023-10-02T12:42:47.270Z,24.77
2023-10-02T12:45:15.302Z,24.71
2023-10-02T12:47:42.463Z,24.47
2023-10-02T12:50:12.789Z,24.51
2023-10-02T12:52:40.166Z,24.63
2023-10-02T12:55:07.523Z,24.18
2023-10-02T12:57:39.851Z,24.40
2023-10-02T13:00:18.484Z,24.60
2023-10-02T13:02:46.480Z,24.26
2023-10-02T13:05:13.725Z,24.63
2023-10-02T13:07:41.552Z,24.17
2023-10-02T13:10:10.259Z,24.42
2023-10-02T13:12:37.310Z,24.62
2023-10-02T13:15:04.732Z,24.51
2023-10-02T13:17:33.436Z,24.47
2023-10-02T13:20:01.123Z,24.08
2023-10-02T13:22:28.347Z,23.89
2023-10-02T13:24:55.393Z,24.12
2023-10-02T13:27:23.049Z,24.18
2023-10-02T13:29:52.635Z,24.45
2023-10-02T13:32:20.541Z,23.93
2023-10-02T13:34:49.098Z,23.84
2023-10-02T13:37:15.979Z,23.74
2023-10-02T13:39:43.207Z,23.83
2023-10-02T13:42:10.153Z,23.82
2023-10-02T13:44:37.043Z,23.98
2023-10-02T13:47:08.780Z,24.04
2023-10-02T13:49:38.708Z,24.06
2023-10-02T13:52:07.310Z,23.96
2023-10-02T13:54:34.697Z,23.91
2023-10-02T13:57:04.047Z,23.20
2023-10-02T13:59:32.772Z,23.44
2023-10-02T14:02:00.963Z,23.35
2023-10-02T14:04:30.315Z,22.98
2023-10-02T14:06:57.726Z,23.05
2023-10-02T14:09:25.766Z,22.88
2023-10-02T14:11:53.527Z,23.05
2023-10-02T14:14:20.518Z,23.09
2023-10-02T14:16:47.657Z,23.32
2023-10-02T14:19:14.600Z,23.35
2023-10-02T14:21:41.424Z,23.40
2023-10-02T14:24:11.027Z,23.25
2023-10-02T14:26:38.624Z,23.36
2023-10-02T14:29:13.354Z,23.33
2023-10-02T14:31:40.566Z,23.03
2023-10-02T14:34:08.373Z,23.00
2023-10-02T14:36:35.539Z,23.16
2023-10-02T14:39:05.577Z,23.13
2023-10-02T14:41:32.893Z,23.05
2023-10-02T14:43:59.961Z,23.12
2023-10-02T14:46:26.885Z,23.01
2023-10-02T14:48:54.821Z,22.97
2023-10-02T14:51:21.956Z,22.88
2023-10-02T14:53:48.818Z,22.89
2023-10-02T14:56:15.700Z,22.77
2023-10-02T14:58:48.964Z,22.77
2023-10-02T15:01:19.207Z,22.56
2023-10-02T15:03:48.919Z,22.39
2023-10-02T15:06:16.121Z,22.35
2023-10-02T15:08:43.386Z,22.31
2023-10-02T15:11:16.112Z,22.06
2023-10-02T15:13:44.116Z,22.10
2023-10-02T15:16:13.725Z,22.06
2023-10-02T15:18:41.453Z,22.09
2023-10-02T15:21:09.474Z,22.03
2023-10-02T15:23:36.468Z,21.99
2023-10-02T15:26:04.185Z,21.90
2023-10-02T15:28:32.547Z,21.88
2023-10-02T15:30:59.921Z,21.72
2023-10-02T15:33:27.393Z,21.69
2023-10-02T15:35:54.501Z,21.63
2023-10-02T15:38:21.637Z,21.55
2023-10-02T15:40:48.932Z,21.57
2023-10-02T15:43:16.584Z,21.41
2023-10-02T15:45:46.584Z,21.43
2023-10-02T15:48:13.601Z,21.37
2023-10-02T15:50:41.788Z,21.34
2023-10-02T15:53:08.940Z,21.26
2023-10-02T15:55:35.856Z,21.17
2023-10-02T15:58:03.097Z,21.10
2023-10-02T16:00:30.316Z,20.99
2023-10-02T16:03:01.956Z,20.92
2023-10-02T16:05:30.815Z,20.82
2023-10-02T16:07:58.152Z,20.66
2023-10-02T16:10:26.346Z,20.55
2023-10-02T16:12:54.286Z,20.43
2023-10-02T16:15:24.984Z,20.30
2023-10-02T16:17:55.091Z,20.18
2023-10-02T16:20:24.022Z,20.14
2023-10-02T16:22:55.692Z,20.09
2023-10-02T16:25:22.906Z,19.98
2023-10-02T16:27:52.154Z,19.91
2023-10-02T16:30:22.020Z,19.77
2023-10-02T16:32:50.453Z,19.66
2023-10-02T16:35:20.190Z,19.59
2023-10-02T16:37:49.688Z,19.54
2023-10-02T16:40:20.471Z,19.38
2023-10-02T16:42:48.629Z,19.31
2023-10-02T16:45:18.297Z,19.31
2023-10-02T16:47:46.820Z,19.12
2023-10-02T16:50:15.437Z,19.09
2023-10-02T16:52:45.708Z,19.05
2023-10-02T16:55:25.008Z,18.93
2023-10-02T16:57:52.390Z,18.84
2023-10-02T17:00:22.242Z,18.80
2023-10-02T17:02:52.438Z,18.68
2023-10-02T17:05:20.660Z,18.60
2023-10-02T17:07:51.102Z,18.52
2023-10-02T17:10:25.227Z,18.51
2023-10-02T17:12:57.341Z,18.42
2023-10-02T17:15:24.606Z,18.31
2023-10-02T17:17:51.891Z,18.32
2023-10-02T17:20:22.337Z,18.25
2023-10-02T17:22:50.945Z,18.31
2023-10-02T17:25:26.457Z,18.35
2023-10-02T17:28:00.211Z,18.27
2023-10-02T17:30:28.211Z,18.27
2023-10-02T17:32:56.942Z,18.29
2023-10-02T17:35:24.601Z,18.28
2023-10-02T17:37:52.373Z,18.25
2023-10-02T17:40:22.095Z,18.21
2023-10-02T17:42:49.525Z,18.22
2023-10-02T17:45:16.646Z,18.14
2023-10-02T17:47:46.016Z,18.02
2023-10-02T17:50:14.683Z,17.98
2023-10-02T17:52:42.901Z,17.95
2023-10-02T17:55:10.702Z,17.96
2023-10-02T17:57:38.090Z,17.79
2023-10-02T18:00:05.545Z,17.42
2023-10-02T18:02:36.450Z,17.30
2023-10-02T18:05:04.791Z,17.18
2023-10-02T18:07:32.504Z,17.09
2023-10-02T18:09:59.502Z,17.32
2023-10-02T18:12:26.624Z,17.38
2023-10-02T18:14:53.734Z,17.39
2023-10-02T18:17:20.729Z,17.31
2023-10-02T18:19:48.580Z,17.28
2023-10-02T18:22:16.158Z,17.27
2023-10-02T18:24:43.922Z,17.27
2023-10-02T18:27:11.789Z,17.25
2023-10-02T18:29:39.277Z,17.25
2023-10-02T18:32:06.362Z,17.19
2023-10-02T18:34:43.671Z,17.21
2023-10-02T18:37:12.585Z,17.19
2023-10-02T18:39:39.766Z,17.15
2023-10-02T18:42:06.686Z,17.11
2023-10-02T18:44:40.047Z,17.01
2023-10-02T18:47:08.337Z,16.96
2023-10-02T18:49:36.896Z,16.95
2023-10-02T18:52:05.218Z,16.86
2023-10-02T18:54:32.752Z,16.82
2023-10-02T18:57:00.437Z,16.70
2023-10-02T18:59:27.795Z,16.73
2023-10-02T19:01:54.771Z,16.59
2023-10-02T19:04:22.761Z,16.52
2023-10-02T19:06:49.954Z,16.47
2023-10-02T19:09:19.080Z,16.53
2023-10-02T19:11:49.424Z,16.57
2023-10-02T19:14:19.137Z,16.34
2023-10-02T19:16:46.216Z,16.29
2023-10-02T19:19:13.330Z,16.29
2023-10-02T19:21:40.306Z,16.28
2023-10-02T19:24:09.942Z,16.30
2023-10-02T19:26:37.748Z,16.29
2023-10-02T19:29:05.035Z,16.07
2023-10-02T19:31:32.295Z,16.12
2023-10-02T19:33:59.413Z,16.15
2023-10-02T19:36:26.519Z,16.12
2023-10-02T19:38:53.557Z,16.08
2023-10-02T19:41:21.249Z,16.08
2023-10-02T19:43:52.655Z,15.91
2023-10-02T19:46:19.685Z,15.61
2023-10-02T19:48:47.366Z,15.34
2023-10-02T19:51:15.808Z,15.39
2023-10-02T19:53:43.738Z,15.37
2023-10-02T19:56:13.594Z,15.52
2023-10-02T19:58:40.807Z,15.53
2023-10-02T20:04:32.905Z,15.64
2023-10-02T20:07:00.998Z,15.76
2023-10-02T20:09:27.873Z,15.65
2023-10-02T20:11:55.265Z,15.70
2023-10-02T20:14:22.408Z,15.67
2023-10-02T20:16:50.770Z,15.74
2023-10-02T20:19:18.918Z,15.39
2023-10-02T20:21:46.252Z,15.46
2023-10-02T20:24:19.116Z,15.38
2023-10-02T20:26:47.845Z,15.45
2023-10-02T20:29:15.441Z,15.45
2023-10-02T20:31:44.409Z,15.44
2023-10-02T20:34:26.171Z,15.33
2023-10-02T20:37:00.728Z,15.27
2023-10-02T20:39:28.687Z,14.94
2023-10-02T20:41:56.319Z,14.94
2023-10-02T20:44:23.316Z,14.87
2023-10-02T20:46:56.240Z,14.74
2023-10-02T20:49:30.137Z,14.85
2023-10-02T20:51:57.169Z,15.00
2023-10-02T20:54:24.272Z,15.07
2023-10-02T20:56:51.155Z,15.05
2023-10-02T20:59:20.665Z,15.05
2023-10-02T21:01:48.577Z,15.07
2023-10-02T21:04:15.884Z,15.08
2023-10-02T21:06:42.746Z,15.12
2023-10-02T21:09:09.707Z,15.13
2023-10-02T21:11:36.755Z,15.08
2023-10-02T21:14:04.605Z,15.10
2023-10-02T21:16:32.486Z,15.08
2023-10-02T21:18:59.858Z,15.00
2023-10-02T21:21:26.812Z,14.99
2023-10-02T21:23:53.626Z,14.97
2023-10-02T21:26:20.597Z,14.94
2023-10-02T21:28:47.461Z,14.88
2023-10-02T21:31:14.821Z,14.88
2023-10-02T21:33:41.781Z,14.76
2023-10-02T21:36:08.956Z,14.87
2023-10-02T21:38:41.574Z,14.78
2023-10-02T21:41:17.022Z,14.80
2023-10-02T21:43:47.221Z,14.73
2023-10-02T21:46:14.697Z,14.76
2023-10-02T21:48:42.505Z,14.72
2023-10-02T21:51:11.259Z,14.68
2023-10-02T21:53:42.041Z,14.70
2023-10-02T21:56:17.767Z,14.78
2023-10-02T21:58:45.739Z,14.84
2023-10-02T22:01:18.143Z,14.84
2023-10-02T22:03:45.487Z,14.73
2023-10-02T22:06:12.593Z,14.71
2023-10-02T22:08:43.086Z,14.60
2023-10-02T22:11:10.659Z,14.61
2023-10-02T22:13:37.719Z,14.58
2023-10-02T22:16:05.838Z,14.63
2023-10-02T22:18:33.071Z,14.64
2023-10-02T22:21:01.919Z,14.53
2023-10-02T22:23:35.162Z,14.49
2023-10-02T22:26:04.322Z,14.48
2023-10-02T22:28:31.727Z,14.53
2023-10-02T22:31:03.028Z,14.50
2023-10-02T22:33:30.881Z,14.48
2023-10-02T22:35:57.941Z,14.17
2023-10-02T22:38:25.001Z,14.19
2023-10-02T22:40:52.221Z,14.31
2023-10-02T22:43:19.098Z,14.32
2023-10-02T22:45:46.451Z,14.34
2023-10-02T22:48:15.415Z,14.39
2023-10-02T22:50:47.674Z,14.37
2023-10-02T22:53:14.611Z,14.33
2023-10-02T22:55:43.431Z,14.27
2023-10-02T22:58:10.382Z,14.25
2023-10-02T23:00:37.443Z,14.28
2023-10-02T23:03:06.880Z,14.07
2023-10-02T23:05:34.392Z,14.03
2023-10-02T23:08:01.316Z,13.88
2023-10-02T23:10:29.104Z,13.53
2023-10-02T23:12:56.750Z,13.46
2023-10-02T23:15:24.763Z,13.63
2023-10-02T23:17:53.129Z,13.61
2023-10-02T23:20:21.824Z,13.56
2023-10-02T23:22:50.050Z,13.44
2023-10-02T23:25:19.775Z,13.73
2023-10-02T23:27:52.881Z,13.71
2023-10-02T23:30:22.151Z,13.57
2023-10-02T23:32:51.548Z,13.67
2023-10-02T23:35:19.814Z,13.62
2023-10-02T23:37:47.358Z,13.76
2023-10-02T23:40:16.578Z,13.75
2023-10-02T23:42:43.465Z,13.72
2023-10-02T23:45:15.581Z,13.74
2023-10-02T23:47:46.599Z,13.78
2023-10-02T23:50:18.132Z,13.82
2023-10-02T23:52:48.765Z,13.81
2023-10-02T23:55:17.038Z,13.86
2023-10-02T23:57:44.569Z,13.81
